CYVQ

Norman Wells Airport

Norman Wells, Northwest Territories, Canada
METAR CYVQ 172100Z 12017G28KT 30SM DRSN SCT120 BKN140 BKN200 BKN260 M11/M16 A2995 RMK AC4AC1CI1CI1 SLP155
Observed Flight Rules
Nov-17 @ 21:00 UTC (an hour ago) Visual Flight Rules
Wind Visibility Clouds Conditions
120° at 17 knots
 Gusting to 28 knots
30 miles
  • Scattered at 12,000' AGL
  • Broken at 14,000' AGL
  • Broken at 20,000' AGL
  • Broken at 26,000' AGL
  • Low drifting
  • Snow
Temperatures Readings
Current -11°C / 12°F
Dewpoint -16°C / 3°F
Humidity 67%
Altimeter 29.95" Hg
Pressure 1015.5 hPa
Elevation 74
METAR CYVQ 172100Z 12017G28KT 30SM DRSN SCT120 BKN140 BKN200 BKN260 M11/M16 A2995 RMK AC4AC1CI1CI1 SLP155
Observed Flight Rules
Nov-17 @ 21:00 UTC
(an hour ago)
VFR
Wind Visibility
120° at 17 knots
 Gusting to 28 knots
30 miles
Clouds
  • Scattered at 12,000' AGL
  • Broken at 14,000' AGL
  • Broken at 20,000' AGL
  • Broken at 26,000' AGL
Conditions
  • Low drifting
  • Snow
Temperature Dewpoint
-11°C / 12°F -16°C / 3°F
Humidity Altimeter Pressure
67% 29.95" Hg 1015.5 hPa